<?xml version="1.0" encoding="UTF-8" standalone="no" ?>
<gpx xmlns="http://www.topografix.com/GPX/1/1" xmlns:xsi="http://www.w3.org/2001/XMLSchema-instance" xsi:schemaLocation="http://www.topografix.com/GPX/1/1 http://www.topografix.com/GPX/1/1/gpx.xsd" version="1.1" creator="VisuGPX - https://www.visugpx.com">
  <metadata>
    <name>Clermont-Ferrand - Massat - Pau par François</name>
    <desc><![CDATA[Trajet effectué par François sur la "Diagonale du vide" en aout 2020]]></desc>
  </metadata>
  <trk>
    <name><![CDATA[route101]]></name>
    <trkseg>
      <trkpt lat="45.80009" lon="3.20371">
        <ele>375.9</ele>
        <time>2020-08-14T13:08:58Z</time>
      </trkpt>
      <trkpt lat="45.7992" lon="3.20438">
        <ele>373.8</ele>
        <time>2020-08-14T13:09:28Z</time>
      </trkpt>
      <trkpt lat="45.7984" lon="3.20499">
        <ele>372.7</ele>
        <time>2020-08-14T13:09:43Z</time>
      </trkpt>
      <trkpt lat="45.79763" lon="3.2061">
        <ele>373.1</ele>
        <time>2020-08-14T13:10:03Z</time>
      </trkpt>
      <trkpt lat="45.79717" lon="3.20738">
        <ele>373.4</ele>
        <time>2020-08-14T13:10:28Z</time>
      </trkpt>
      <trkpt lat="45.79673" lon="3.20855">
        <ele>372.4</ele>
        <time>2020-08-14T13:10:53Z</time>
      </trkpt>
      <trkpt lat="45.79627" lon="3.20984">
        <ele>371</ele>
        <time>2020-08-14T13:11:13Z</time>
      </trkpt>
      <trkpt lat="45.79583" lon="3.21103">
        <ele>370.6</ele>
        <time>2020-08-14T13:11:28Z</time>
      </trkpt>
      <trkpt lat="45.79539" lon="3.21231">
        <ele>370.6</ele>
        <time>2020-08-14T13:11:43Z</time>
      </trkpt>
      <trkpt lat="45.79503" lon="3.2137">
        <ele>370.8</ele>
        <time>2020-08-14T13:11:58Z</time>
      </trkpt>
      <trkpt lat="45.79479" lon="3.21508">
        <ele>370.6</ele>
        <time>2020-08-14T13:12:13Z</time>
      </trkpt>
      <trkpt lat="45.79465" lon="3.21672">
        <ele>369.9</ele>
        <time>2020-08-14T13:12:33Z</time>
      </trkpt>
      <trkpt lat="45.79447" lon="3.2182">
        <ele>369</ele>
        <time>2020-08-14T13:12:53Z</time>
      </trkpt>
      <trkpt lat="45.79432" lon="3.21957">
        <ele>368.9</ele>
        <time>2020-08-14T13:13:13Z</time>
      </trkpt>
      <trkpt lat="45.79414" lon="3.22098">
        <ele>369.3</ele>
        <time>2020-08-14T13:13:33Z</time>
      </trkpt>
      <trkpt lat="45.79388" lon="3.22232">
        <ele>369.6</ele>
        <time>2020-08-14T13:13:53Z</time>
      </trkpt>
      <trkpt lat="45.79366" lon="3.22357">
        <ele>370.1</ele>
        <time>2020-08-14T13:14:13Z</time>
      </trkpt>
      <trkpt lat="45.79335" lon="3.22504">
        <ele>370.7</ele>
        <time>2020-08-14T13:14:38Z</time>
      </trkpt>
      <trkpt lat="45.7932" lon="3.22641">
        <ele>371.2</ele>
        <time>2020-08-14T13:15:03Z</time>
      </trkpt>
      <trkpt lat="45.79256" lon="3.22744">
        <ele>373.3</ele>
        <time>2020-08-14T13:15:33Z</time>
      </trkpt>
      <trkpt lat="45.7932" lon="3.22847">
        <ele>378.8</ele>
        <time>2020-08-14T13:16:38Z</time>
      </trkpt>
      <trkpt lat="45.79402" lon="3.22942">
        <ele>380.6</ele>
        <time>2020-08-14T13:17:13Z</time>
      </trkpt>
      <trkpt lat="45.79475" lon="3.23029">
        <ele>382.4</ele>
        <time>2020-08-14T13:17:48Z</time>
      </trkpt>
      <trkpt lat="45.7955" lon="3.23129">
        <ele>383.6</ele>
        <time>2020-08-14T13:18:27Z</time>
      </trkpt>
      <trkpt lat="45.79583" lon="3.23262">
        <ele>384.8</ele>
        <time>2020-08-14T13:19:14Z</time>
      </trkpt>
      <trkpt lat="45.79615" lon="3.23386">
        <ele>385.5</ele>
        <time>2020-08-14T13:19:49Z</time>
      </trkpt>
      <trkpt lat="45.79657" lon="3.23533">
        <ele>386.4</ele>
        <time>2020-08-14T13:20:19Z</time>
      </trkpt>
      <trkpt lat="45.79701" lon="3.23685">
        <ele>386.1</ele>
        <time>2020-08-14T13:20:44Z</time>
      </trkpt>
      <trkpt lat="45.79751" lon="3.23849">
        <ele>385.9</ele>
        <time>2020-08-14T13:21:04Z</time>
      </trkpt>
      <trkpt lat="45.79794" lon="3.23991">
        <ele>384.7</ele>
        <time>2020-08-14T13:21:19Z</time>
      </trkpt>
      <trkpt lat="45.79833" lon="3.24125">
        <ele>384.3</ele>
        <time>2020-08-14T13:21:34Z</time>
      </trkpt>
      <trkpt lat="45.79866" lon="3.24248">
        <ele>384.3</ele>
        <time>2020-08-14T13:21:59Z</time>
      </trkpt>
      <trkpt lat="45.79907" lon="3.24387">
        <ele>385.2</ele>
        <time>2020-08-14T13:22:34Z</time>
      </trkpt>
      <trkpt lat="45.79918" lon="3.24544">
        <ele>389.4</ele>
        <time>2020-08-14T13:23:04Z</time>
      </trkpt>
      <trkpt lat="45.79927" lon="3.24675">
        <ele>391</ele>
        <time>2020-08-14T13:23:24Z</time>
      </trkpt>
      <trkpt lat="45.7994" lon="3.24828">
        <ele>392.1</ele>
        <time>2020-08-14T13:23:49Z</time>
      </trkpt>
      <trkpt lat="45.79957" lon="3.2498">
        <ele>391.7</ele>
        <time>2020-08-14T13:24:09Z</time>
      </trkpt>
      <trkpt lat="45.79975" lon="3.25138">
        <ele>391.3</ele>
        <time>2020-08-14T13:24:24Z</time>
      </trkpt>
      <trkpt lat="45.79939" lon="3.25313">
        <ele>390.5</ele>
        <time>2020-08-14T13:24:39Z</time>
      </trkpt>
      <trkpt lat="45.79913" lon="3.25494">
        <ele>388.1</ele>
        <time>2020-08-14T13:24:54Z</time>
      </trkpt>
      <trkpt lat="45.79882" lon="3.25672">
        <ele>385.3</ele>
        <time>2020-08-14T13:25:09Z</time>
      </trkpt>
      <trkpt lat="45.79844" lon="3.2583">
        <ele>382.3</ele>
        <time>2020-08-14T13:25:24Z</time>
      </trkpt>
      <trkpt lat="45.79748" lon="3.25851">
        <ele>380</ele>
        <time>2020-08-14T13:25:39Z</time>
      </trkpt>
      <trkpt lat="45.7964" lon="3.25846">
        <ele>378.5</ele>
        <time>2020-08-14T13:25:54Z</time>
      </trkpt>
      <trkpt lat="45.79533" lon="3.25843">
        <ele>375.9</ele>
        <time>2020-08-14T13:26:14Z</time>
      </trkpt>
      <trkpt lat="45.79442" lon="3.25836">
        <ele>372.1</ele>
        <time>2020-08-14T13:26:29Z</time>
      </trkpt>
      <trkpt lat="45.7936" lon="3.25921">
        <ele>369.9</ele>
        <time>2020-08-14T13:26:49Z</time>
      </trkpt>
      <trkpt lat="45.7929" lon="3.26022">
        <ele>370.3</ele>
        <time>2020-08-14T13:27:14Z</time>
      </trkpt>
      <trkpt lat="45.79219" lon="3.2612">
        <ele>370.4</ele>
        <time>2020-08-14T13:27:44Z</time>
      </trkpt>
      <trkpt lat="45.79155" lon="3.2621">
        <ele>371.1</ele>
        <time>2020-08-14T13:28:14Z</time>
      </trkpt>
      <trkpt lat="45.79094" lon="3.26303">
        <ele>371.4</ele>
        <time>2020-08-14T13:28:34Z</time>
      </trkpt>
      <trkpt lat="45.79025" lon="3.26399">
        <ele>370.9</ele>
        <time>2020-08-14T13:28:54Z</time>
      </trkpt>
      <trkpt lat="45.78954" lon="3.265">
        <ele>371.2</ele>
        <time>2020-08-14T13:29:14Z</time>
      </trkpt>
      <trkpt lat="45.78878" lon="3.26593">
        <ele>370.3</ele>
        <time>2020-08-14T13:29:34Z</time>
      </trkpt>
      <trkpt lat="45.7882" lon="3.26725">
        <ele>369.7</ele>
        <time>2020-08-14T13:30:04Z</time>
      </trkpt>
      <trkpt lat="45.78792" lon="3.26854">
        <ele>370.8</ele>
        <time>2020-08-14T13:30:24Z</time>
      </trkpt>
      <trkpt lat="45.78757" lon="3.26995">
        <ele>371.2</ele>
        <time>2020-08-14T13:30:54Z</time>
      </trkpt>
      <trkpt lat="45.78721" lon="3.27141">
        <ele>371.4</ele>
        <time>2020-08-14T13:31:24Z</time>
      </trkpt>
      <trkpt lat="45.78683" lon="3.27281">
        <ele>372.6</ele>
        <time>2020-08-14T13:31:49Z</time>
      </trkpt>
      <trkpt lat="45.78663" lon="3.27417">
        <ele>372.5</ele>
        <time>2020-08-14T13:32:09Z</time>
      </trkpt>
      <trkpt lat="45.78655" lon="3.27562">
        <ele>372.7</ele>
        <time>2020-08-14T13:32:24Z</time>
      </trkpt>
      <trkpt lat="45.78649" lon="3.27719">
        <ele>371.9</ele>
        <time>2020-08-14T13:32:39Z</time>
      </trkpt>
      <trkpt lat="45.78642" lon="3.27865">
        <ele>370.2</ele>
        <time>2020-08-14T13:32:54Z</time>
      </trkpt>
      <trkpt lat="45.78633" lon="3.27998">
        <ele>369.3</ele>
        <time>2020-08-14T13:33:09Z</time>
      </trkpt>
      <trkpt lat="45.78626" lon="3.28143">
        <ele>371.5</ele>
        <time>2020-08-14T13:33:29Z</time>
      </trkpt>
      <trkpt lat="45.78619" lon="3.28282">
        <ele>370.8</ele>
        <time>2020-08-14T13:33:49Z</time>
      </trkpt>
      <trkpt lat="45.78614" lon="3.28411">
        <ele>370</ele>
        <time>2020-08-14T13:34:09Z</time>
      </trkpt>
      <trkpt lat="45.78608" lon="3.28559">
        <ele>369.6</ele>
        <time>2020-08-14T13:34:34Z</time>
      </trkpt>
      <trkpt lat="45.78601" lon="3.28712">
        <ele>370.4</ele>
        <time>2020-08-14T13:34:59Z</time>
      </trkpt>
      <trkpt lat="45.7859" lon="3.2884">
        <ele>372.2</ele>
        <time>2020-08-14T13:35:24Z</time>
      </trkpt>
      <trkpt lat="45.78591" lon="3.28973">
        <ele>374.6</ele>
        <time>2020-08-14T13:35:59Z</time>
      </trkpt>
      <trkpt lat="45.78634" lon="3.29098">
        <ele>375.8</ele>
        <time>2020-08-14T13:36:49Z</time>
      </trkpt>
      <trkpt lat="45.78701" lon="3.29202">
        <ele>378.4</ele>
        <time>2020-08-14T13:37:41Z</time>
      </trkpt>
      <trkpt lat="45.78775" lon="3.29296">
        <ele>382.1</ele>
        <time>2020-08-14T13:38:21Z</time>
      </trkpt>
      <trkpt lat="45.78855" lon="3.29404">
        <ele>385.4</ele>
        <time>2020-08-14T13:38:51Z</time>
      </trkpt>
      <trkpt lat="45.78938" lon="3.2951">
        <ele>385.6</ele>
        <time>2020-08-14T13:39:16Z</time>
      </trkpt>
      <trkpt lat="45.79008" lon="3.29604">
        <ele>384.7</ele>
        <time>2020-08-14T13:39:36Z</time>
      </trkpt>
      <trkpt lat="45.79076" lon="3.29698">
        <ele>384.3</ele>
        <time>2020-08-14T13:39:51Z</time>
      </trkpt>
      <trkpt lat="45.79165" lon="3.29823">
        <ele>384.1</ele>
        <time>2020-08-14T13:40:06Z</time>
      </trkpt>
      <trkpt lat="45.79237" lon="3.29918">
        <ele>383.4</ele>
        <time>2020-08-14T13:40:16Z</time>
      </trkpt>
      <trkpt lat="45.7931" lon="3.30016">
        <ele>381.7</ele>
        <time>2020-08-14T13:40:26Z</time>
      </trkpt>
      <trkpt lat="45.79407" lon="3.30146">
        <ele>379.3</ele>
        <time>2020-08-14T13:40:41Z</time>
      </trkpt>
      <trkpt lat="45.79486" lon="3.30253">
        <ele>376.1</ele>
        <time>2020-08-14T13:40:56Z</time>
      </trkpt>
      <trkpt lat="45.7956" lon="3.30361">
        <ele>375.7</ele>
        <time>2020-08-14T13:41:16Z</time>
      </trkpt>
      <trkpt lat="45.79639" lon="3.30464">
        <ele>375</ele>
        <time>2020-08-14T13:41:46Z</time>
      </trkpt>
      <trkpt lat="45.79714" lon="3.30565">
        <ele>374.4</ele>
        <time>2020-08-14T13:42:15Z</time>
      </trkpt>
      <trkpt lat="45.79791" lon="3.30665">
        <ele>373.9</ele>
        <time>2020-08-14T13:42:45Z</time>
      </trkpt>
      <trkpt lat="45.79866" lon="3.3076">
        <ele>373.7</ele>
        <time>2020-08-14T13:43:15Z</time>
      </trkpt>
      <trkpt lat="45.79945" lon="3.30864">
        <ele>374.3</ele>
        <time>2020-08-14T13:43:45Z</time>
      </trkpt>
      <trkpt lat="45.80016" lon="3.30959">
        <ele>374.8</ele>
        <time>2020-08-14T13:44:15Z</time>
      </trkpt>
      <trkpt lat="45.80094" lon="3.31062">
        <ele>375.6</ele>
        <time>2020-08-14T13:44:50Z</time>
      </trkpt>
      <trkpt lat="45.80171" lon="3.31164">
        <ele>377.5</ele>
        <time>2020-08-14T13:45:20Z</time>
      </trkpt>
      <trkpt lat="45.80238" lon="3.31256">
        <ele>378.6</ele>
        <time>2020-08-14T13:45:45Z</time>
      </trkpt>
      <trkpt lat="45.80309" lon="3.31349">
        <ele>379.1</ele>
        <time>2020-08-14T13:46:15Z</time>
      </trkpt>
      <trkpt lat="45.80384" lon="3.31451">
        <ele>379.9</ele>
        <time>2020-08-14T13:46:55Z</time>
      </trkpt>
      <trkpt lat="45.80451" lon="3.31542">
        <ele>380.5</ele>
        <time>2020-08-14T13:47:35Z</time>
      </trkpt>
      <trkpt lat="45.80522" lon="3.31635">
        <ele>381.3</ele>
        <time>2020-08-14T13:48:10Z</time>
      </trkpt>
      <trkpt lat="45.80609" lon="3.31751">
        <ele>382.4</ele>
        <time>2020-08-14T13:48:35Z</time>
      </trkpt>
      <trkpt lat="45.8068" lon="3.31846">
        <ele>381.9</ele>
        <time>2020-08-14T13:48:50Z</time>
      </trkpt>
      <trkpt lat="45.80753" lon="3.3195">
        <ele>381.3</ele>
        <time>2020-08-14T13:49:05Z</time>
      </trkpt>
      <trkpt lat="45.80812" lon="3.32066">
        <ele>380</ele>
        <time>2020-08-14T13:49:20Z</time>
      </trkpt>
      <trkpt lat="45.80866" lon="3.32211">
        <ele>378</ele>
        <time>2020-08-14T13:49:35Z</time>
      </trkpt>
      <trkpt lat="45.80906" lon="3.32334">
        <ele>376.3</ele>
        <time>2020-08-14T13:49:45Z</time>
      </trkpt>
      <trkpt lat="45.8095" lon="3.32459">
        <ele>375.1</ele>
        <time>2020-08-14T13:49:55Z</time>
      </trkpt>
      <trkpt lat="45.80994" lon="3.3258">
        <ele>373.8</ele>
        <time>2020-08-14T13:50:05Z</time>
      </trkpt>
      <trkpt lat="45.81057" lon="3.32749">
        <ele>371.1</ele>
        <time>2020-08-14T13:50:20Z</time>
      </trkpt>
      <trkpt lat="45.81109" lon="3.32885">
        <ele>368.4</ele>
        <time>2020-08-14T13:50:35Z</time>
      </trkpt>
      <trkpt lat="45.81168" lon="3.3303">
        <ele>365.9</ele>
        <time>2020-08-14T13:50:55Z</time>
      </trkpt>
      <trkpt lat="45.81217" lon="3.33163">
        <ele>364.9</ele>
        <time>2020-08-14T13:51:15Z</time>
      </trkpt>
      <trkpt lat="45.81261" lon="3.33282">
        <ele>364</ele>
        <time>2020-08-14T13:51:35Z</time>
      </trkpt>
      <trkpt lat="45.81308" lon="3.3341">
        <ele>363.9</ele>
        <time>2020-08-14T13:52:00Z</time>
      </trkpt>
      <trkpt lat="45.8135" lon="3.33533">
        <ele>363.9</ele>
        <time>2020-08-14T13:52:25Z</time>
      </trkpt>
      <trkpt lat="45.81396" lon="3.33663">
        <ele>364.2</ele>
        <time>2020-08-14T13:52:55Z</time>
      </trkpt>
      <trkpt lat="45.81444" lon="3.33797">
        <ele>365.4</ele>
        <time>2020-08-14T13:53:25Z</time>
      </trkpt>
      <trkpt lat="45.81486" lon="3.33914">
        <ele>366.2</ele>
        <time>2020-08-14T13:53:45Z</time>
      </trkpt>
      <trkpt lat="45.81536" lon="3.34036">
        <ele>366.4</ele>
        <time>2020-08-14T13:54:05Z</time>
      </trkpt>
      <trkpt lat="45.81585" lon="3.34164">
        <ele>366.7</ele>
        <time>2020-08-14T13:54:31Z</time>
      </trkpt>
      <trkpt lat="45.81632" lon="3.34291">
        <ele>367.2</ele>
        <time>2020-08-14T13:54:56Z</time>
      </trkpt>
      <trkpt lat="45.8168" lon="3.34423">
        <ele>367.2</ele>
        <time>2020-08-14T13:55:21Z</time>
      </trkpt>
      <trkpt lat="45.81729" lon="3.34557">
        <ele>367.5</ele>
        <time>2020-08-14T13:55:46Z</time>
      </trkpt>
      <trkpt lat="45.81777" lon="3.34684">
        <ele>367.2</ele>
        <time>2020-08-14T13:56:11Z</time>
      </trkpt>
      <trkpt lat="45.81829" lon="3.34828">
        <ele>366.9</ele>
        <time>2020-08-14T13:56:36Z</time>
      </trkpt>
      <trkpt lat="45.81879" lon="3.34963">
        <ele>366.6</ele>
        <time>2020-08-14T13:56:56Z</time>
      </trkpt>
      <trkpt lat="45.8193" lon="3.35101">
        <ele>366.2</ele>
        <time>2020-08-14T13:57:16Z</time>
      </trkpt>
      <trkpt lat="45.81982" lon="3.35245">
        <ele>365.7</ele>
        <time>2020-08-14T13:57:41Z</time>
      </trkpt>
      <trkpt lat="45.82028" lon="3.35371">
        <ele>365.5</ele>
        <time>2020-08-14T13:58:01Z</time>
      </trkpt>
      <trkpt lat="45.82071" lon="3.3549">
        <ele>365.3</ele>
        <time>2020-08-14T13:58:21Z</time>
      </trkpt>
      <trkpt lat="45.82123" lon="3.35627">
        <ele>365.1</ele>
        <time>2020-08-14T13:58:46Z</time>
      </trkpt>
      <trkpt lat="45.82172" lon="3.35763">
        <ele>365</ele>
        <time>2020-08-14T13:59:11Z</time>
      </trkpt>
      <trkpt lat="45.82221" lon="3.35895">
        <ele>365</ele>
        <time>2020-08-14T13:59:36Z</time>
      </trkpt>
      <trkpt lat="45.82265" lon="3.36014">
        <ele>365.2</ele>
        <time>2020-08-14T14:00:01Z</time>
      </trkpt>
      <trkpt lat="45.82308" lon="3.36134">
        <ele>365.5</ele>
        <time>2020-08-14T14:00:26Z</time>
      </trkpt>
      <trkpt lat="45.82356" lon="3.36261">
        <ele>365.9</ele>
        <time>2020-08-14T14:00:51Z</time>
      </trkpt>
      <trkpt lat="45.82403" lon="3.36387">
        <ele>366.2</ele>
        <time>2020-08-14T14:01:16Z</time>
      </trkpt>
      <trkpt lat="45.82445" lon="3.36507">
        <ele>366.4</ele>
        <time>2020-08-14T14:01:41Z</time>
      </trkpt>
      <trkpt lat="45.82494" lon="3.36632">
        <ele>366.7</ele>
        <time>2020-08-14T14:02:06Z</time>
      </trkpt>
      <trkpt lat="45.82544" lon="3.36768">
        <ele>367.1</ele>
        <time>2020-08-14T14:02:36Z</time>
      </trkpt>
      <trkpt lat="45.8259" lon="3.36892">
        <ele>367.5</ele>
        <time>2020-08-14T14:03:06Z</time>
      </trkpt>
      <trkpt lat="45.82601" lon="3.37036">
        <ele>368.1</ele>
        <time>2020-08-14T14:03:41Z</time>
      </trkpt>
      <trkpt lat="45.82571" lon="3.3717">
        <ele>368.9</ele>
        <time>2020-08-14T14:04:16Z</time>
      </trkpt>
      <trkpt lat="45.82531" lon="3.37299">
        <ele>369.9</ele>
        <time>2020-08-14T14:05:02Z</time>
      </trkpt>
      <trkpt lat="45.82497" lon="3.3743">
        <ele>370.5</ele>
        <time>2020-08-14T14:05:53Z</time>
      </trkpt>
      <trkpt lat="45.82462" lon="3.37547">
        <ele>371.1</ele>
        <time>2020-08-14T14:06:32Z</time>
      </trkpt>
      <trkpt lat="45.82414" lon="3.37655">
        <ele>371.7</ele>
        <time>2020-08-14T14:07:02Z</time>
      </trkpt>
      <trkpt lat="45.82359" lon="3.37775">
        <ele>373.1</ele>
        <time>2020-08-14T14:07:27Z</time>
      </trkpt>
      <trkpt lat="45.82327" lon="3.37899">
        <ele>373.4</ele>
        <time>2020-08-14T14:07:47Z</time>
      </trkpt>
      <trkpt lat="45.82321" lon="3.38029">
        <ele>373.9</ele>
        <time>2020-08-14T14:08:12Z</time>
      </trkpt>
      <trkpt lat="45.82302" lon="3.38183">
        <ele>374.2</ele>
        <time>2020-08-14T14:19:26Z</time>
      </trkpt>
      <trkpt lat="45.82305" lon="3.38316">
        <ele>373.7</ele>
        <time>2020-08-14T14:19:51Z</time>
      </trkpt>
      <trkpt lat="45.82323" lon="3.38454">
        <ele>373.5</ele>
        <time>2020-08-14T14:20:16Z</time>
      </trkpt>
      <trkpt lat="45.82273" lon="3.38579">
        <ele>373.8</ele>
        <time>2020-08-14T14:21:23Z</time>
      </trkpt>
      <trkpt lat="45.82216" lon="3.38698">
        <ele>374.4</ele>
        <time>2020-08-14T14:21:43Z</time>
      </trkpt>
      <trkpt lat="45.82158" lon="3.38821">
        <ele>374.7</ele>
        <time>2020-08-14T14:22:03Z</time>
      </trkpt>
      <trkpt lat="45.82098" lon="3.38937">
        <ele>374.2</ele>
        <time>2020-08-14T14:22:23Z</time>
      </trkpt>
      <trkpt lat="45.82032" lon="3.39074">
        <ele>373.5</ele>
        <time>2020-08-14T14:22:43Z</time>
      </trkpt>
      <trkpt lat="45.81982" lon="3.3918">
        <ele>372.5</ele>
        <time>2020-08-14T14:22:58Z</time>
      </trkpt>
      <trkpt lat="45.81912" lon="3.39273">
        <ele>371.2</ele>
        <time>2020-08-14T14:23:18Z</time>
      </trkpt>
      <trkpt lat="45.82001" lon="3.39237">
        <ele>369.8</ele>
        <time>2020-08-14T14:24:03Z</time>
      </trkpt>
      <trkpt lat="45.81925" lon="3.39314">
        <ele>373.7</ele>
        <time>2020-08-14T14:25:10Z</time>
      </trkpt>
      <trkpt lat="45.81897" lon="3.39464">
        <ele>373.5</ele>
        <time>2020-08-14T14:25:30Z</time>
      </trkpt>
      <trkpt lat="45.81882" lon="3.39595">
        <ele>373.6</ele>
        <time>2020-08-14T14:25:45Z</time>
      </trkpt>
      <trkpt lat="45.81873" lon="3.39724">
        <ele>373.4</ele>
        <time>2020-08-14T14:26:00Z</time>
      </trkpt>
      <trkpt lat="45.81842" lon="3.39846">
        <ele>374.6</ele>
        <time>2020-08-14T14:26:35Z</time>
      </trkpt>
      <trkpt lat="45.81826" lon="3.39982">
        <ele>380.7</ele>
        <time>2020-08-14T14:27:00Z</time>
      </trkpt>
      <trkpt lat="45.81822" lon="3.40126">
        <ele>381.6</ele>
        <time>2020-08-14T14:27:25Z</time>
      </trkpt>
      <trkpt lat="45.81848" lon="3.40269">
        <ele>381.3</ele>
        <time>2020-08-14T14:27:50Z</time>
      </trkpt>
      <trkpt lat="45.81877" lon="3.40418">
        <ele>379.9</ele>
        <time>2020-08-14T14:28:10Z</time>
      </trkpt>
      <trkpt lat="45.81902" lon="3.40567">
        <ele>380.1</ele>
        <time>2020-08-14T14:28:30Z</time>
      </trkpt>
      <trkpt lat="45.81893" lon="3.40705">
        <ele>381.1</ele>
        <time>2020-08-14T14:28:50Z</time>
      </trkpt>
      <trkpt lat="45.81938" lon="3.40845">
        <ele>381.5</ele>
        <time>2020-08-14T14:29:20Z</time>
      </trkpt>
      <trkpt lat="45.81989" lon="3.40972">
        <ele>381.8</ele>
        <time>2020-08-14T14:29:45Z</time>
      </trkpt>
      <trkpt lat="45.81994" lon="3.41121">
        <ele>381.9</ele>
        <time>2020-08-14T14:30:15Z</time>
      </trkpt>
      <trkpt lat="45.81952" lon="3.41233">
        <ele>382.9</ele>
        <time>2020-08-14T14:30:39Z</time>
      </trkpt>
      <trkpt lat="45.81913" lon="3.41348">
        <ele>383.5</ele>
        <time>2020-08-14T14:31:04Z</time>
      </trkpt>
      <trkpt lat="45.81874" lon="3.41464">
        <ele>383.8</ele>
        <time>2020-08-14T14:31:34Z</time>
      </trkpt>
      <trkpt lat="45.8185" lon="3.41588">
        <ele>384.2</ele>
        <time>2020-08-14T14:31:59Z</time>
      </trkpt>
      <trkpt lat="45.81849" lon="3.41718">
        <ele>384.5</ele>
        <time>2020-08-14T14:32:24Z</time>
      </trkpt>
      <trkpt lat="45.81849" lon="3.41864">
        <ele>385</ele>
        <time>2020-08-14T14:32:59Z</time>
      </trkpt>
      <trkpt lat="45.8185" lon="3.41999">
        <ele>385.7</ele>
        <time>2020-08-14T14:33:34Z</time>
      </trkpt>
      <trkpt lat="45.81851" lon="3.42131">
        <ele>386.6</ele>
        <time>2020-08-14T14:34:16Z</time>
      </trkpt>
      <trkpt lat="45.81853" lon="3.42261">
        <ele>387.9</ele>
        <time>2020-08-14T14:35:04Z</time>
      </trkpt>
      <trkpt lat="45.819" lon="3.42383">
        <ele>388.9</ele>
        <time>2020-08-14T14:35:34Z</time>
      </trkpt>
      <trkpt lat="45.8192" lon="3.42524">
        <ele>390.1</ele>
        <time>2020-08-14T14:36:04Z</time>
      </trkpt>
      <trkpt lat="45.8194" lon="3.42669">
        <ele>391.3</ele>
        <time>2020-08-14T14:36:39Z</time>
      </trkpt>
      <trkpt lat="45.81966" lon="3.42818">
        <ele>392.5</ele>
        <time>2020-08-14T14:37:09Z</time>
      </trkpt>
      <trkpt lat="45.82008" lon="3.42961">
        <ele>395.3</ele>
        <time>2020-08-14T14:37:39Z</time>
      </trkpt>
      <trkpt lat="45.8205" lon="3.43087">
        <ele>396.2</ele>
        <time>2020-08-14T14:38:04Z</time>
      </trkpt>
      <trkpt lat="45.82094" lon="3.43209">
        <ele>396.9</ele>
        <time>2020-08-14T14:38:29Z</time>
      </trkpt>
      <trkpt lat="45.82156" lon="3.43353">
        <ele>399.2</ele>
        <time>2020-08-14T14:38:59Z</time>
      </trkpt>
      <trkpt lat="45.82221" lon="3.43488">
        <ele>399.8</ele>
        <time>2020-08-14T14:39:19Z</time>
      </trkpt>
      <trkpt lat="45.82294" lon="3.43618">
        <ele>400.4</ele>
        <time>2020-08-14T14:39:39Z</time>
      </trkpt>
      <trkpt lat="45.82264" lon="3.43757">
        <ele>401.3</ele>
        <time>2020-08-14T14:40:09Z</time>
      </trkpt>
      <trkpt lat="45.82217" lon="3.43882">
        <ele>402</ele>
        <time>2020-08-14T14:40:34Z</time>
      </trkpt>
      <trkpt lat="45.82138" lon="3.43941">
        <ele>402.7</ele>
        <time>2020-08-14T14:40:54Z</time>
      </trkpt>
      <trkpt lat="45.82034" lon="3.43974">
        <ele>404.7</ele>
        <time>2020-08-14T14:41:19Z</time>
      </trkpt>
      <trkpt lat="45.81934" lon="3.44017">
        <ele>406.7</ele>
        <time>2020-08-14T14:41:44Z</time>
      </trkpt>
      <trkpt lat="45.81872" lon="3.44107">
        <ele>407.3</ele>
        <time>2020-08-14T14:42:04Z</time>
      </trkpt>
      <trkpt lat="45.81811" lon="3.44216">
        <ele>407.8</ele>
        <time>2020-08-14T14:42:24Z</time>
      </trkpt>
      <trkpt lat="45.81822" lon="3.44355">
        <ele>408</ele>
        <time>2020-08-14T14:42:39Z</time>
      </trkpt>
      <trkpt lat="45.81827" lon="3.44486">
        <ele>407.9</ele>
        <time>2020-08-14T14:42:54Z</time>
      </trkpt>
      <trkpt lat="45.81856" lon="3.44621">
        <ele>414.4</ele>
        <time>2020-08-14T14:43:14Z</time>
      </trkpt>
      <trkpt lat="45.81807" lon="3.44738">
        <ele>414.9</ele>
        <time>2020-08-14T14:43:34Z</time>
      </trkpt>
      <trkpt lat="45.81718" lon="3.44825">
        <ele>412.5</ele>
        <time>2020-08-14T14:43:49Z</time>
      </trkpt>
      <trkpt lat="45.81745" lon="3.44984">
        <ele>412.9</ele>
        <time>2020-08-14T14:44:09Z</time>
      </trkpt>
      <trkpt lat="45.81779" lon="3.45107">
        <ele>410.9</ele>
        <time>2020-08-14T14:44:24Z</time>
      </trkpt>
      <trkpt lat="45.81826" lon="3.45226">
        <ele>411.6</ele>
        <time>2020-08-14T14:45:06Z</time>
      </trkpt>
      <trkpt lat="45.81872" lon="3.45345">
        <ele>414.3</ele>
        <time>2020-08-14T14:45:50Z</time>
      </trkpt>
      <trkpt lat="45.8194" lon="3.45475">
        <ele>414.3</ele>
        <time>2020-08-14T14:46:15Z</time>
      </trkpt>
      <trkpt lat="45.81992" lon="3.45592">
        <ele>414.4</ele>
        <time>2020-08-14T14:46:35Z</time>
      </trkpt>
      <trkpt lat="45.8204" lon="3.45721">
        <ele>414.6</ele>
        <time>2020-08-14T14:47:00Z</time>
      </trkpt>
      <trkpt lat="45.82095" lon="3.45852">
        <ele>414.7</ele>
        <time>2020-08-14T14:47:25Z</time>
      </trkpt>
      <trkpt lat="45.82149" lon="3.45968">
        <ele>414.3</ele>
        <time>2020-08-14T14:47:55Z</time>
      </trkpt>
      <trkpt lat="45.82192" lon="3.46107">
        <ele>414.1</ele>
        <time>2020-08-14T14:48:20Z</time>
      </trkpt>
      <trkpt lat="45.82197" lon="3.46244">
        <ele>414</ele>
        <time>2020-08-14T14:48:40Z</time>
      </trkpt>
      <trkpt lat="45.82226" lon="3.46375">
        <ele>414.1</ele>
        <time>2020-08-14T14:49:00Z</time>
      </trkpt>
      <trkpt lat="45.82261" lon="3.46525">
        <ele>414.1</ele>
        <time>2020-08-14T14:49:25Z</time>
      </trkpt>
      <trkpt lat="45.82289" lon="3.46683">
        <ele>413.9</ele>
        <time>2020-08-14T14:49:50Z</time>
      </trkpt>
      <trkpt lat="45.8233" lon="3.46813">
        <ele>413.6</ele>
        <time>2020-08-14T14:50:10Z</time>
      </trkpt>
      <trkpt lat="45.82389" lon="3.46938">
        <ele>413.5</ele>
        <time>2020-08-14T14:50:30Z</time>
      </trkpt>
      <trkpt lat="45.82412" lon="3.47078">
        <ele>413.3</ele>
        <time>2020-08-14T14:50:50Z</time>
      </trkpt>
      <trkpt lat="45.82472" lon="3.47189">
        <ele>413</ele>
        <time>2020-08-14T14:51:05Z</time>
      </trkpt>
      <trkpt lat="45.82558" lon="3.4729">
        <ele>412.4</ele>
        <time>2020-08-14T14:51:20Z</time>
      </trkpt>
      <trkpt lat="45.82628" lon="3.47405">
        <ele>411.7</ele>
        <time>2020-08-14T14:51:35Z</time>
      </trkpt>
      <trkpt lat="45.82705" lon="3.47495">
        <ele>410.9</ele>
        <time>2020-08-14T14:51:50Z</time>
      </trkpt>
      <trkpt lat="45.82807" lon="3.47578">
        <ele>409.4</ele>
        <time>2020-08-14T14:52:10Z</time>
      </trkpt>
      <trkpt lat="45.82899" lon="3.47635">
        <ele>410.5</ele>
        <time>2020-08-14T14:52:30Z</time>
      </trkpt>
      <trkpt lat="45.82976" lon="3.47725">
        <ele>410.6</ele>
        <time>2020-08-14T14:52:50Z</time>
      </trkpt>
      <trkpt lat="45.83031" lon="3.47836">
        <ele>409.2</ele>
        <time>2020-08-14T14:53:10Z</time>
      </trkpt>
      <trkpt lat="45.83013" lon="3.4801">
        <ele>406.5</ele>
        <time>2020-08-14T14:53:30Z</time>
      </trkpt>
      <trkpt lat="45.83002" lon="3.48188">
        <ele>405</ele>
        <time>2020-08-14T14:53:45Z</time>
      </trkpt>
      <trkpt lat="45.8303" lon="3.48316">
        <ele>403.9</ele>
        <time>2020-08-14T14:53:55Z</time>
      </trkpt>
      <trkpt lat="45.83114" lon="3.48444">
        <ele>401.5</ele>
        <time>2020-08-14T14:54:10Z</time>
      </trkpt>
      <trkpt lat="45.83212" lon="3.48523">
        <ele>397.7</ele>
        <time>2020-08-14T14:54:25Z</time>
      </trkpt>
      <trkpt lat="45.83326" lon="3.48605">
        <ele>397</ele>
        <time>2020-08-14T14:54:40Z</time>
      </trkpt>
      <trkpt lat="45.83424" lon="3.48718">
        <ele>395.5</ele>
        <time>2020-08-14T14:54:55Z</time>
      </trkpt>
      <trkpt lat="45.83532" lon="3.48805">
        <ele>394</ele>
        <time>2020-08-14T14:55:09Z</time>
      </trkpt>
      <trkpt lat="45.83609" lon="3.48938">
        <ele>386.8</ele>
        <time>2020-08-14T14:55:24Z</time>
      </trkpt>
      <trkpt lat="45.83655" lon="3.49081">
        <ele>383</ele>
        <time>2020-08-14T14:55:39Z</time>
      </trkpt>
      <trkpt lat="45.83685" lon="3.49216">
        <ele>379.1</ele>
        <time>2020-08-14T14:55:54Z</time>
      </trkpt>
      <trkpt lat="45.83724" lon="3.49374">
        <ele>372.6</ele>
        <time>2020-08-14T14:56:14Z</time>
      </trkpt>
      <trkpt lat="45.83758" lon="3.49518">
        <ele>369.4</ele>
        <time>2020-08-14T14:56:29Z</time>
      </trkpt>
      <trkpt lat="45.8379" lon="3.49645">
        <ele>366.6</ele>
        <time>2020-08-14T14:56:44Z</time>
      </trkpt>
      <trkpt lat="45.83828" lon="3.49772">
        <ele>363.7</ele>
        <time>2020-08-14T14:56:59Z</time>
      </trkpt>
      <trkpt lat="45.83857" lon="3.499">
        <ele>361.8</ele>
        <time>2020-08-14T14:57:24Z</time>
      </trkpt>
      <trkpt lat="45.83888" lon="3.50032">
        <ele>359.7</ele>
        <time>2020-08-14T14:57:54Z</time>
      </trkpt>
      <trkpt lat="45.83923" lon="3.50169">
        <ele>358.2</ele>
        <time>2020-08-14T14:58:24Z</time>
      </trkpt>
      <trkpt lat="45.83956" lon="3.50303">
        <ele>355.8</ele>
        <time>2020-08-14T14:58:44Z</time>
      </trkpt>
      <trkpt lat="45.83993" lon="3.50452">
        <ele>354.5</ele>
        <time>2020-08-14T14:59:04Z</time>
      </trkpt>
      <trkpt lat="45.84022" lon="3.50585">
        <ele>354.2</ele>
        <time>2020-08-14T14:59:24Z</time>
      </trkpt>
      <trkpt lat="45.84042" lon="3.50718">
        <ele>352.8</ele>
        <time>2020-08-14T14:59:55Z</time>
      </trkpt>
      <trkpt lat="45.84087" lon="3.50834">
        <ele>353.5</ele>
        <time>2020-08-14T15:00:15Z</time>
      </trkpt>
      <trkpt lat="45.84123" lon="3.50981">
        <ele>354.1</ele>
        <time>2020-08-14T15:00:40Z</time>
      </trkpt>
      <trkpt lat="45.84162" lon="3.51128">
        <ele>355.6</ele>
        <time>2020-08-14T15:01:05Z</time>
      </trkpt>
      <trkpt lat="45.842" lon="3.5128">
        <ele>355.4</ele>
        <time>2020-08-14T15:01:30Z</time>
      </trkpt>
      <trkpt lat="45.84232" lon="3.51405">
        <ele>355.5</ele>
        <time>2020-08-14T15:01:50Z</time>
      </trkpt>
      <trkpt lat="45.84267" lon="3.51542">
        <ele>355.7</ele>
        <time>2020-08-14T15:02:15Z</time>
      </trkpt>
      <trkpt lat="45.84314" lon="3.5167">
        <ele>355.2</ele>
        <time>2020-08-14T15:02:40Z</time>
      </trkpt>
      <trkpt lat="45.84366" lon="3.51805">
        <ele>355</ele>
        <time>2020-08-14T15:03:05Z</time>
      </trkpt>
      <trkpt lat="45.84416" lon="3.51939">
        <ele>354.9</ele>
        <time>2020-08-14T15:03:30Z</time>
      </trkpt>
      <trkpt lat="45.84456" lon="3.52062">
        <ele>354.7</ele>
        <time>2020-08-14T15:03:50Z</time>
      </trkpt>
      <trkpt lat="45.84499" lon="3.52195">
        <ele>354.4</ele>
        <time>2020-08-14T15:04:10Z</time>
      </trkpt>
      <trkpt lat="45.84538" lon="3.52319">
        <ele>354.1</ele>
        <time>2020-08-14T15:04:30Z</time>
      </trkpt>
      <trkpt lat="45.84585" lon="3.52467">
        <ele>353.8</ele>
        <time>2020-08-14T15:04:55Z</time>
      </trkpt>
      <trkpt lat="45.84624" lon="3.52589">
        <ele>353.7</ele>
        <time>2020-08-14T15:05:15Z</time>
      </trkpt>
      <trkpt lat="45.84665" lon="3.52723">
        <ele>353.8</ele>
        <time>2020-08-14T15:05:40Z</time>
      </trkpt>
      <trkpt lat="45.84709" lon="3.52864">
        <ele>354.2</ele>
        <time>2020-08-14T15:06:05Z</time>
      </trkpt>
      <trkpt lat="45.84753" lon="3.5301">
        <ele>354.4</ele>
        <time>2020-08-14T15:06:30Z</time>
      </trkpt>
      <trkpt lat="45.84795" lon="3.53154">
        <ele>354.6</ele>
        <time>2020-08-14T15:06:55Z</time>
      </trkpt>
      <trkpt lat="45.84838" lon="3.53295">
        <ele>354.9</ele>
        <time>2020-08-14T15:07:20Z</time>
      </trkpt>
      <trkpt lat="45.84878" lon="3.53435">
        <ele>355.1</ele>
        <time>2020-08-14T15:07:45Z</time>
      </trkpt>
      <trkpt lat="45.84918" lon="3.53565">
        <ele>355.2</ele>
        <time>2020-08-14T15:08:10Z</time>
      </trkpt>
      <trkpt lat="45.84961" lon="3.53704">
        <ele>355.3</ele>
        <time>2020-08-14T15:08:35Z</time>
      </trkpt>
      <trkpt lat="45.85" lon="3.53823">
        <ele>355.4</ele>
        <time>2020-08-14T15:09:00Z</time>
      </trkpt>
      <trkpt lat="45.85092" lon="3.53837">
        <ele>355.7</ele>
        <time>2020-08-14T15:09:30Z</time>
      </trkpt>
      <trkpt lat="45.85166" lon="3.53948">
        <ele>356.1</ele>
        <time>2020-08-14T15:10:00Z</time>
      </trkpt>
      <trkpt lat="45.85202" lon="3.54083">
        <ele>356.2</ele>
        <time>2020-08-14T15:10:25Z</time>
      </trkpt>
      <trkpt lat="45.85276" lon="3.54181">
        <ele>356.7</ele>
        <time>2020-08-14T15:11:20Z</time>
      </trkpt>
      <trkpt lat="45.8537" lon="3.54221">
        <ele>357.7</ele>
        <time>2020-08-14T15:12:30Z</time>
      </trkpt>
      <trkpt lat="45.85456" lon="3.54273">
        <ele>364.5</ele>
        <time>2020-08-14T15:17:38Z</time>
      </trkpt>
      <trkpt lat="45.85535" lon="3.54344">
        <ele>371</ele>
        <time>2020-08-14T15:19:54Z</time>
      </trkpt>
      <trkpt lat="45.85623" lon="3.54302">
        <ele>383.9</ele>
        <time>2020-08-14T15:23:20Z</time>
      </trkpt>
      <trkpt lat="45.85698" lon="3.54391">
        <ele>398.6</ele>
        <time>2020-08-14T15:25:24Z</time>
      </trkpt>
      <trkpt lat="45.85684" lon="3.54519">
        <ele>409.9</ele>
        <time>2020-08-14T15:26:41Z</time>
      </trkpt>
      <trkpt lat="45.85616" lon="3.54604">
        <ele>425.5</ele>
        <time>2020-08-14T15:27:57Z</time>
      </trkpt>
      <trkpt lat="45.85533" lon="3.54668">
        <ele>432.1</ele>
        <time>2020-08-14T15:28:42Z</time>
      </trkpt>
      <trkpt lat="45.85508" lon="3.54802">
        <ele>437.7</ele>
        <time>2020-08-14T15:29:22Z</time>
      </trkpt>
      <trkpt lat="45.85605" lon="3.54815">
        <ele>447.1</ele>
        <time>2020-08-14T15:30:47Z</time>
      </trkpt>
      <trkpt lat="45.85678" lon="3.54735">
        <ele>457.7</ele>
        <time>2020-08-14T15:33:46Z</time>
      </trkpt>
      <trkpt lat="45.85671" lon="3.54885">
        <ele>479.1</ele>
        <time>2020-08-14T15:38:08Z</time>
      </trkpt>
      <trkpt lat="45.85733" lon="3.54992">
        <ele>479.2</ele>
        <time>2020-08-14T15:39:02Z</time>
      </trkpt>
      <trkpt lat="45.85831" lon="3.54996">
        <ele>479.4</ele>
        <time>2020-08-14T15:39:42Z</time>
      </trkpt>
      <trkpt lat="45.85925" lon="3.54986">
        <ele>479.5</ele>
        <time>2020-08-14T15:40:17Z</time>
      </trkpt>
      <trkpt lat="45.8594" lon="3.55125">
        <ele>480.6</ele>
        <time>2020-08-14T15:41:28Z</time>
      </trkpt>
      <trkpt lat="45.85944" lon="3.55263">
        <ele>482.2</ele>
        <time>2020-08-14T15:42:19Z</time>
      </trkpt>
      <trkpt lat="45.85966" lon="3.55397">
        <ele>484.9</ele>
        <time>2020-08-14T15:43:18Z</time>
      </trkpt>
      <trkpt lat="45.86059" lon="3.55369">
        <ele>486.6</ele>
        <time>2020-08-14T15:44:09Z</time>
      </trkpt>
      <trkpt lat="45.86151" lon="3.55348">
        <ele>488.2</ele>
        <time>2020-08-14T15:44:54Z</time>
      </trkpt>
      <trkpt lat="45.8624" lon="3.55384">
        <ele>490</ele>
        <time>2020-08-14T15:45:41Z</time>
      </trkpt>
      <trkpt lat="45.8632" lon="3.55474">
        <ele>492.7</ele>
        <time>2020-08-14T15:46:33Z</time>
      </trkpt>
      <trkpt lat="45.86314" lon="3.55615">
        <ele>496.3</ele>
        <time>2020-08-14T15:47:28Z</time>
      </trkpt>
      <trkpt lat="45.86308" lon="3.55746">
        <ele>499.4</ele>
        <time>2020-08-14T15:48:15Z</time>
      </trkpt>
      <trkpt lat="45.86275" lon="3.55876">
        <ele>504.5</ele>
        <time>2020-08-14T15:49:15Z</time>
      </trkpt>
      <trkpt lat="45.86307" lon="3.56012">
        <ele>511.5</ele>
        <time>2020-08-14T15:50:16Z</time>
      </trkpt>
      <trkpt lat="45.86401" lon="3.56066">
        <ele>518.4</ele>
        <time>2020-08-14T15:51:13Z</time>
      </trkpt>
      <trkpt lat="45.86489" lon="3.56123">
        <ele>524.7</ele>
        <time>2020-08-14T15:52:13Z</time>
      </trkpt>
      <trkpt lat="45.86587" lon="3.5613">
        <ele>529.2</ele>
        <time>2020-08-14T15:53:07Z</time>
      </trkpt>
      <trkpt lat="45.86671" lon="3.56185">
        <ele>533.5</ele>
        <time>2020-08-14T15:54:02Z</time>
      </trkpt>
      <trkpt lat="45.8663" lon="3.56299">
        <ele>541.7</ele>
        <time>2020-08-14T15:55:50Z</time>
      </trkpt>
      <trkpt lat="45.86559" lon="3.56383">
        <ele>546.8</ele>
        <time>2020-08-14T15:56:49Z</time>
      </trkpt>
      <trkpt lat="45.86512" lon="3.56492">
        <ele>551.2</ele>
        <time>2020-08-14T15:57:43Z</time>
      </trkpt>
      <trkpt lat="45.86605" lon="3.56527">
        <ele>555.5</ele>
        <time>2020-08-14T15:58:52Z</time>
      </trkpt>
      <trkpt lat="45.86672" lon="3.56624">
        <ele>558.4</ele>
        <time>2020-08-14T15:59:55Z</time>
      </trkpt>
      <trkpt lat="45.86771" lon="3.56635">
        <ele>561.5</ele>
        <time>2020-08-14T16:00:53Z</time>
      </trkpt>
      <trkpt lat="45.86869" lon="3.56653">
        <ele>565.2</ele>
        <time>2020-08-14T16:01:57Z</time>
      </trkpt>
      <trkpt lat="45.86956" lon="3.56726">
        <ele>569.1</ele>
        <time>2020-08-14T16:02:55Z</time>
      </trkpt>
      <trkpt lat="45.87049" lon="3.56737">
        <ele>572.8</ele>
        <time>2020-08-14T16:03:49Z</time>
      </trkpt>
      <trkpt lat="45.87129" lon="3.56812">
        <ele>577</ele>
        <time>2020-08-14T16:04:48Z</time>
      </trkpt>
      <trkpt lat="45.87195" lon="3.56915">
        <ele>581.8</ele>
        <time>2020-08-14T16:05:50Z</time>
      </trkpt>
      <trkpt lat="45.87275" lon="3.57009">
        <ele>584.6</ele>
        <time>2020-08-14T16:06:31Z</time>
      </trkpt>
      <trkpt lat="45.87335" lon="3.57125">
        <ele>587.3</ele>
        <time>2020-08-14T16:07:11Z</time>
      </trkpt>
      <trkpt lat="45.87403" lon="3.57224">
        <ele>591.7</ele>
        <time>2020-08-14T16:08:03Z</time>
      </trkpt>
      <trkpt lat="45.87444" lon="3.57347">
        <ele>607</ele>
        <time>2020-08-14T16:14:00Z</time>
      </trkpt>
      <trkpt lat="45.87501" lon="3.57463">
        <ele>613</ele>
        <time>2020-08-14T16:14:53Z</time>
      </trkpt>
      <trkpt lat="45.87575" lon="3.5739">
        <ele>616.7</ele>
        <time>2020-08-14T16:15:55Z</time>
      </trkpt>
      <trkpt lat="45.87635" lon="3.57285">
        <ele>619.5</ele>
        <time>2020-08-14T16:16:53Z</time>
      </trkpt>
      <trkpt lat="45.87608" lon="3.57156">
        <ele>622.8</ele>
        <time>2020-08-14T16:17:51Z</time>
      </trkpt>
      <trkpt lat="45.87697" lon="3.57187">
        <ele>627.3</ele>
        <time>2020-08-14T16:19:03Z</time>
      </trkpt>
      <trkpt lat="45.87777" lon="3.5713">
        <ele>631.1</ele>
        <time>2020-08-14T16:20:11Z</time>
      </trkpt>
      <trkpt lat="45.87876" lon="3.57145">
        <ele>639.1</ele>
        <time>2020-08-14T16:21:29Z</time>
      </trkpt>
      <trkpt lat="45.87941" lon="3.57258">
        <ele>650.5</ele>
        <time>2020-08-14T16:22:36Z</time>
      </trkpt>
      <trkpt lat="45.87987" lon="3.57381">
        <ele>662.4</ele>
        <time>2020-08-14T16:23:22Z</time>
      </trkpt>
      <trkpt lat="45.88055" lon="3.57484">
        <ele>671.9</ele>
        <time>2020-08-14T16:24:08Z</time>
      </trkpt>
      <trkpt lat="45.88149" lon="3.57511">
        <ele>677.3</ele>
        <time>2020-08-14T16:24:53Z</time>
      </trkpt>
      <trkpt lat="45.88245" lon="3.57541">
        <ele>682</ele>
        <time>2020-08-14T16:25:58Z</time>
      </trkpt>
      <trkpt lat="45.88332" lon="3.57493">
        <ele>683.9</ele>
        <time>2020-08-14T16:26:45Z</time>
      </trkpt>
      <trkpt lat="45.88401" lon="3.57394">
        <ele>685.8</ele>
        <time>2020-08-14T16:27:44Z</time>
      </trkpt>
      <trkpt lat="45.88506" lon="3.57359">
        <ele>687</ele>
        <time>2020-08-14T16:28:04Z</time>
      </trkpt>
      <trkpt lat="45.88562" lon="3.57484">
        <ele>687.1</ele>
        <time>2020-08-14T16:28:19Z</time>
      </trkpt>
      <trkpt lat="45.88638" lon="3.57597">
        <ele>687.9</ele>
        <time>2020-08-14T16:28:39Z</time>
      </trkpt>
      <trkpt lat="45.88734" lon="3.57613">
        <ele>686.4</ele>
        <time>2020-08-14T16:28:54Z</time>
      </trkpt>
      <trkpt lat="45.88831" lon="3.57689">
        <ele>685.2</ele>
        <time>2020-08-14T16:29:14Z</time>
      </trkpt>
      <trkpt lat="45.88888" lon="3.57805">
        <ele>685.1</ele>
        <time>2020-08-14T16:29:34Z</time>
      </trkpt>
      <trkpt lat="45.88912" lon="3.57957">
        <ele>684.5</ele>
        <time>2020-08-14T16:29:59Z</time>
      </trkpt>
      <trkpt lat="45.88925" lon="3.58087">
        <ele>685.6</ele>
        <time>2020-08-14T16:30:24Z</time>
      </trkpt>
      <trkpt lat="45.88943" lon="3.58218">
        <ele>687.1</ele>
        <time>2020-08-14T16:30:49Z</time>
      </trkpt>
      <trkpt lat="45.89008" lon="3.58342">
        <ele>689.4</ele>
        <time>2020-08-14T16:31:19Z</time>
      </trkpt>
      <trkpt lat="45.89077" lon="3.58439">
        <ele>691.3</ele>
        <time>2020-08-14T16:31:44Z</time>
      </trkpt>
      <trkpt lat="45.89139" lon="3.58565">
        <ele>691.8</ele>
        <time>2020-08-14T16:32:14Z</time>
      </trkpt>
      <trkpt lat="45.89215" lon="3.58666">
        <ele>693.8</ele>
        <time>2020-08-14T16:32:43Z</time>
      </trkpt>
      <trkpt lat="45.89304" lon="3.58691">
        <ele>694.2</ele>
        <time>2020-08-14T16:33:03Z</time>
      </trkpt>
      <trkpt lat="45.89406" lon="3.58645">
        <ele>691.1</ele>
        <time>2020-08-14T16:33:28Z</time>
      </trkpt>
      <trkpt lat="45.89494" lon="3.58699">
        <ele>690.4</ele>
        <time>2020-08-14T16:33:53Z</time>
      </trkpt>
      <trkpt lat="45.8942" lon="3.58783">
        <ele>690.6</ele>
        <time>2020-08-14T16:34:39Z</time>
      </trkpt>
      <trkpt lat="45.89329" lon="3.58826">
        <ele>692.8</ele>
        <time>2020-08-14T16:35:40Z</time>
      </trkpt>
      <trkpt lat="45.89236" lon="3.58835">
        <ele>695.7</ele>
        <time>2020-08-14T16:36:28Z</time>
      </trkpt>
      <trkpt lat="45.89151" lon="3.58881">
        <ele>698.4</ele>
        <time>2020-08-14T16:37:18Z</time>
      </trkpt>
      <trkpt lat="45.89089" lon="3.58973">
        <ele>700.9</ele>
        <time>2020-08-14T16:38:11Z</time>
      </trkpt>
      <trkpt lat="45.89022" lon="3.59068">
        <ele>705.2</ele>
        <time>2020-08-14T16:40:36Z</time>
      </trkpt>
      <trkpt lat="45.88953" lon="3.59168">
        <ele>707.5</ele>
        <time>2020-08-14T16:41:31Z</time>
      </trkpt>
      <trkpt lat="45.88861" lon="3.59168">
        <ele>709.3</ele>
        <time>2020-08-14T16:42:13Z</time>
      </trkpt>
    </trkseg>
  </trk>
</gpx>